Time,TemperatureF,DewpointF,PressureIn,WindDirection,WindDirectionDegrees,WindSpeedMPH,WindSpeedGustMPH,Humidity,HourlyPrecipIn,Conditions,Clouds,dailyrainin,SoftwareType,DateUTC
2013-05-22 00:02:00,62.8,29.2,29.82,West,278,0.0,0.0,28,0.00,,,0.00,Wunderground v.1.15,2013-05-22 06:02:00,
2013-05-22 00:11:00,62.3,28.7,29.82,West,278,0.0,0.0,28,0.00,,,0.00,Wunderground v.1.15,2013-05-22 06:11:00,
2013-05-22 00:16:00,62.2,29.5,29.82,West,278,0.0,0.0,29,0.00,,,0.00,Wunderground v.1.15,2013-05-22 06:16:00,
2013-05-22 00:21:00,62.0,28.5,29.82,West,277,0.0,0.0,28,0.00,,,0.00,Wunderground v.1.15,2013-05-22 06:21:00,
2013-05-22 00:31:00,61.6,29.0,29.82,West,277,0.0,0.0,29,0.00,,,0.00,Wunderground v.1.15,2013-05-22 06:31:00,
2013-05-22 00:37:00,61.2,28.7,29.82,West,278,0.0,0.0,29,0.00,,,0.00,Wunderground v.1.15,2013-05-22 06:37:00,
2013-05-22 00:46:00,60.5,29.7,29.82,West,277,0.0,0.0,31,0.00,,,0.00,Wunderground v.1.15,2013-05-22 06:46:00,
2013-05-22 00:51:00,59.9,29.2,29.82,West,277,0.0,0.0,31,0.00,,,0.00,Wunderground v.1.15,2013-05-22 06:51:00,
2013-05-22 01:02:00,59.3,29.4,29.82,West,277,0.0,0.0,32,0.00,,,0.00,Wunderground v.1.15,2013-05-22 07:02:00,
2013-05-22 01:12:00,59.5,30.3,29.82,West,278,0.0,0.0,33,0.00,,,0.00,Wunderground v.1.15,2013-05-22 07:12:00,
2013-05-22 01:21:00,59.9,29.2,29.82,West,278,0.0,0.0,31,0.00,,,0.00,Wunderground v.1.15,2013-05-22 07:21:00,
2013-05-22 01:31:00,59.9,29.2,29.81,West,278,0.0,0.0,31,0.00,,,0.00,Wunderground v.1.15,2013-05-22 07:31:00,
2013-05-22 01:36:00,59.6,29.7,29.81,West,277,0.0,0.0,32,0.00,,,0.00,Wunderground v.1.15,2013-05-22 07:36:00,
2013-05-22 01:47:00,58.7,30.4,29.81,West,277,0.0,0.0,34,0.00,,,0.00,Wunderground v.1.15,2013-05-22 07:47:00,
2013-05-22 01:56:00,58.4,30.8,29.81,West,277,0.0,0.0,35,0.00,,,0.00,Wunderground v.1.15,2013-05-22 07:56:00,
2013-05-22 02:02:00,58.0,30.5,29.81,West,277,0.0,0.0,35,0.00,,,0.00,Wunderground v.1.15,2013-05-22 08:02:00,
2013-05-22 02:11:00,57.7,30.9,29.81,West,278,0.0,0.0,36,0.00,,,0.00,Wunderground v.1.15,2013-05-22 08:11:00,
2013-05-22 02:16:00,57.3,31.2,29.81,West,278,0.0,0.0,37,0.00,,,0.00,Wunderground v.1.15,2013-05-22 08:16:00,
2013-05-22 02:21:00,56.9,30.9,29.81,West,278,0.0,0.0,37,0.00,,,0.00,Wunderground v.1.15,2013-05-22 08:21:00,
2013-05-22 02:27:00,56.7,30.7,29.80,West,278,0.0,0.0,37,0.00,,,0.00,Wunderground v.1.15,2013-05-22 08:27:00,
2013-05-22 02:37:00,56.6,31.3,29.81,ESE,122,0.0,0.0,38,0.00,,,0.00,Wunderground v.1.15,2013-05-22 08:37:00,
2013-05-22 02:46:00,57.0,31.0,29.81,SE,128,0.0,0.0,37,0.00,,,0.00,Wunderground v.1.15,2013-05-22 08:46:00,
2013-05-22 02:56:00,56.6,31.9,29.81,SE,127,0.0,0.0,39,0.00,,,0.00,Wunderground v.1.15,2013-05-22 08:56:00,
2013-05-22 03:02:00,56.1,31.5,29.81,SE,129,0.0,0.0,39,0.00,,,0.00,Wunderground v.1.15,2013-05-22 09:02:00,
2013-05-22 03:11:00,55.5,30.9,29.81,SE,128,0.0,0.0,39,0.00,,,0.00,Wunderground v.1.15,2013-05-22 09:11:00,
2013-05-22 03:17:00,55.3,31.4,29.81,SE,129,0.0,0.0,40,0.00,,,0.00,Wunderground v.1.15,2013-05-22 09:17:00,
2013-05-22 03:27:00,54.7,30.8,29.81,SE,128,0.0,0.0,40,0.00,,,0.00,Wunderground v.1.15,2013-05-22 09:27:00,
2013-05-22 03:36:00,53.8,30.6,29.82,SE,127,0.0,0.0,41,0.00,,,0.00,Wunderground v.1.15,2013-05-22 09:36:00,
2013-05-22 03:46:00,53.5,30.4,29.83,SSE,158,0.0,0.0,41,0.00,,,0.00,Wunderground v.1.15,2013-05-22 09:46:00,
2013-05-22 03:52:00,53.8,28.1,29.82,SSE,158,0.0,0.0,37,0.00,,,0.00,Wunderground v.1.15,2013-05-22 09:52:00,
2013-05-22 04:02:00,54.9,28.4,29.83,SE,126,1.0,2.0,36,0.00,,,0.00,Wunderground v.1.15,2013-05-22 10:02:00,
2013-05-22 04:11:00,55.1,27.2,29.83,ESE,117,0.0,0.0,34,0.00,,,0.00,Wunderground v.1.15,2013-05-22 10:11:00,
2013-05-22 04:16:00,55.0,27.1,29.83,ESE,122,0.0,0.0,34,0.00,,,0.00,Wunderground v.1.15,2013-05-22 10:16:00,
2013-05-22 04:26:00,54.8,26.9,29.82,ESE,115,0.0,0.0,34,0.00,,,0.00,Wunderground v.1.15,2013-05-22 10:26:00,
2013-05-22 04:31:00,54.7,27.6,29.82,ESE,109,0.0,0.0,35,0.00,,,0.00,Wunderground v.1.15,2013-05-22 10:31:00,
2013-05-22 04:37:00,54.9,27.7,29.82,ESE,104,0.0,0.0,35,0.00,,,0.00,Wunderground v.1.15,2013-05-22 10:37:00,
2013-05-22 04:47:00,55.4,27.5,29.82,SE,131,0.0,0.0,34,0.00,,,0.00,Wunderground v.1.15,2013-05-22 10:47:00,
2013-05-22 04:56:00,55.4,27.5,29.81,SE,129,0.0,0.0,34,0.00,,,0.00,Wunderground v.1.15,2013-05-22 10:56:00,
2013-05-22 05:02:00,55.2,27.3,29.82,SE,129,0.0,0.0,34,0.00,,,0.00,Wunderground v.1.15,2013-05-22 11:02:00,
2013-05-22 05:12:00,55.4,27.5,29.81,SE,125,0.0,0.0,34,0.00,,,0.00,Wunderground v.1.15,2013-05-22 11:12:00,
2013-05-22 05:21:00,55.3,28.1,29.82,SSE,158,0.0,0.0,35,0.00,,,0.00,Wunderground v.1.15,2013-05-22 11:21:00,
2013-05-22 05:26:00,55.0,27.8,29.82,SE,129,0.0,0.0,35,0.00,,,0.00,Wunderground v.1.15,2013-05-22 11:26:00,
2013-05-22 05:32:00,54.6,27.5,29.82,SE,129,0.0,0.0,35,0.00,,,0.00,Wunderground v.1.15,2013-05-22 11:32:00,
2013-05-22 05:42:00,53.7,28.0,29.82,SE,141,0.0,0.0,37,0.00,,,0.00,Wunderground v.1.15,2013-05-22 11:42:00,
2013-05-22 05:51:00,53.1,28.8,29.83,SW,221,0.0,0.0,39,0.00,,,0.00,Wunderground v.1.15,2013-05-22 11:51:00,
2013-05-22 06:02:00,52.3,28.7,29.83,ESE,120,0.0,0.0,40,0.00,,,0.00,Wunderground v.1.15,2013-05-22 12:02:00,
2013-05-22 06:11:00,52.0,29.0,29.83,NNE,28,0.0,1.0,41,0.00,,,0.00,Wunderground v.1.15,2013-05-22 12:11:00,
2013-05-22 06:16:00,52.1,29.1,29.83,NNE,28,0.0,1.0,41,0.00,,,0.00,Wunderground v.1.15,2013-05-22 12:16:00,
2013-05-22 06:22:00,51.8,29.4,29.83,SE,129,0.0,1.0,42,0.00,,,0.00,Wunderground v.1.15,2013-05-22 12:22:00,
2013-05-22 06:31:00,51.5,29.1,29.83,SE,129,0.0,0.0,42,0.00,,,0.00,Wunderground v.1.15,2013-05-22 12:31:00,
2013-05-22 06:36:00,51.6,30.4,29.84,SE,129,0.0,0.0,44,0.00,,,0.00,Wunderground v.1.15,2013-05-22 12:36:00,
2013-05-22 06:46:00,53.0,30.5,29.84,North,6,0.0,1.0,42,0.00,,,0.00,Wunderground v.1.15,2013-05-22 12:46:00,
2013-05-22 06:56:00,54.3,31.1,29.84,NW,316,0.0,1.0,41,0.00,,,0.00,Wunderground v.1.15,2013-05-22 12:56:00,
2013-05-22 07:02:00,55.1,30.6,29.84,North,359,1.0,1.0,39,0.00,,,0.00,Wunderground v.1.15,2013-05-22 13:02:00,
2013-05-22 07:11:00,55.7,30.5,29.85,NNE,22,0.0,0.0,38,0.00,,,0.00,Wunderground v.1.15,2013-05-22 13:11:00,
2013-05-22 07:21:00,56.7,31.4,29.85,WSW,258,0.0,0.0,38,0.00,,,0.00,Wunderground v.1.15,2013-05-22 13:21:00,
2013-05-22 07:31:00,57.2,31.1,29.85,SSW,192,0.0,0.0,37,0.00,,,0.00,Wunderground v.1.15,2013-05-22 13:31:00,
2013-05-22 07:41:00,59.3,23.4,29.85,SE,128,2.0,4.0,25,0.00,,,0.00,Wunderground v.1.15,2013-05-22 13:41:00,
2013-05-22 07:46:00,60.2,23.2,29.85,ESE,103,3.0,4.0,24,0.00,,,0.00,Wunderground v.1.15,2013-05-22 13:46:00,
2013-05-22 07:56:00,61.4,23.2,29.85,SE,146,2.0,2.0,23,0.00,,,0.00,Wunderground v.1.15,2013-05-22 13:56:00,
2013-05-22 08:02:00,62.0,21.6,29.86,SE,125,2.0,3.0,21,0.00,,,0.00,Wunderground v.1.15,2013-05-22 14:02:00,
2013-05-22 08:11:00,63.2,20.2,29.86,ESE,115,2.0,5.0,19,0.00,,,0.00,Wunderground v.1.15,2013-05-22 14:11:00,
2013-05-22 08:21:00,64.2,18.4,29.86,SSE,161,3.0,4.0,17,0.00,,,0.00,Wunderground v.1.15,2013-05-22 14:21:00,
2013-05-22 08:26:00,64.6,18.7,29.86,ESE,102,4.0,4.0,17,0.00,,,0.00,Wunderground v.1.15,2013-05-22 14:26:00,
2013-05-22 08:36:00,65.1,17.7,29.86,South,191,3.0,7.0,16,0.00,,,0.00,Wunderground v.1.15,2013-05-22 14:36:00,
2013-05-22 08:46:00,65.3,19.3,29.87,SSW,204,3.0,4.0,17,0.00,,,0.00,Wunderground v.1.15,2013-05-22 14:46:00,
2013-05-22 08:51:00,65.4,18.0,29.87,WSW,240,3.0,3.0,16,0.00,,,0.00,Wunderground v.1.15,2013-05-22 14:51:00,
2013-05-22 08:57:00,65.7,19.6,29.87,SE,146,3.0,3.0,17,0.00,,,0.00,Wunderground v.1.15,2013-05-22 14:57:00,
2013-05-22 09:02:00,66.1,18.5,29.87,SE,139,2.0,2.0,16,0.00,,,0.00,Wunderground v.1.15,2013-05-22 15:02:00,
2013-05-22 09:11:00,66.7,19.0,29.86,SW,225,2.0,2.0,16,0.00,,,0.00,Wunderground v.1.15,2013-05-22 15:11:00,
2013-05-22 09:16:00,67.4,21.0,29.86,SE,129,2.0,2.0,17,0.00,,,0.00,Wunderground v.1.15,2013-05-22 15:16:00,
2013-05-22 09:21:00,67.9,18.5,29.86,SSE,160,2.0,4.0,15,0.00,,,0.00,Wunderground v.1.15,2013-05-22 15:21:00,
2013-05-22 09:31:00,69.1,19.5,29.86,SSW,203,3.0,3.0,15,0.00,,,0.00,Wunderground v.1.15,2013-05-22 15:31:00,
2013-05-22 09:37:00,69.4,18.1,29.86,SE,132,3.0,3.0,14,0.00,,,0.00,Wunderground v.1.15,2013-05-22 15:37:00,
2013-05-22 09:47:00,70.5,20.6,29.86,NW,309,2.0,2.0,15,0.00,,,0.00,Wunderground v.1.15,2013-05-22 15:47:00,
2013-05-22 09:56:00,70.8,19.2,29.85,SSE,160,2.0,2.0,14,0.00,,,0.00,Wunderground v.1.15,2013-05-22 15:56:00,
2013-05-22 10:02:00,70.9,20.9,29.85,SSW,194,3.0,3.0,15,0.00,,,0.00,Wunderground v.1.15,2013-05-22 16:02:00,
2013-05-22 10:11:00,71.6,21.5,29.85,ESE,113,2.0,2.0,15,0.00,,,0.00,Wunderground v.1.15,2013-05-22 16:11:00,
2013-05-22 10:16:00,71.9,20.1,29.85,South,174,3.0,5.0,14,0.00,,,0.00,Wunderground v.1.15,2013-05-22 16:16:00,
2013-05-22 10:26:00,73.0,20.9,29.85,SSW,205,2.0,3.0,14,0.00,,,0.00,Wunderground v.1.15,2013-05-22 16:26:00,
2013-05-22 10:31:00,73.1,19.3,29.85,South,169,3.0,7.0,13,0.00,,,0.00,Wunderground v.1.15,2013-05-22 16:31:00,
2013-05-22 10:37:00,72.8,20.8,29.84,SSW,210,3.0,7.0,14,0.00,,,0.00,Wunderground v.1.15,2013-05-22 16:37:00,
2013-05-22 10:46:00,73.6,19.7,29.85,WSW,250,3.0,3.0,13,0.00,,,0.00,Wunderground v.1.15,2013-05-22 16:46:00,
2013-05-22 10:56:00,74.5,20.4,29.84,SSE,155,2.0,3.0,13,0.00,,,0.00,Wunderground v.1.15,2013-05-22 16:56:00,
2013-05-22 11:02:00,75.4,21.1,29.84,SSE,148,2.0,2.0,13,0.00,,,0.00,Wunderground v.1.15,2013-05-22 17:02:00,
2013-05-22 11:11:00,75.6,21.2,29.84,SE,127,3.0,3.0,13,0.00,,,0.00,Wunderground v.1.15,2013-05-22 17:11:00,
2013-05-22 11:17:00,76.2,21.7,29.84,ESE,123,3.0,3.0,13,0.00,,,0.00,Wunderground v.1.15,2013-05-22 17:17:00,
2013-05-22 11:26:00,76.7,20.2,29.84,ESE,123,2.0,2.0,12,0.00,,,0.00,Wunderground v.1.15,2013-05-22 17:26:00,
2013-05-22 11:31:00,76.9,20.4,29.83,SSE,148,2.0,2.0,12,0.00,,,0.00,Wunderground v.1.15,2013-05-22 17:31:00,
2013-05-22 11:41:00,77.3,20.7,29.83,SSE,158,3.0,3.0,12,0.00,,,0.00,Wunderground v.1.15,2013-05-22 17:41:00,
2013-05-22 11:46:00,77.6,18.9,29.83,SSE,165,4.0,4.0,11,0.00,,,0.00,Wunderground v.1.15,2013-05-22 17:46:00,
2013-05-22 11:51:00,77.1,20.5,29.83,SE,141,3.0,3.0,12,0.00,,,0.00,Wunderground v.1.15,2013-05-22 17:51:00,
2013-05-22 12:02:00,78.1,19.3,29.83,SSW,205,2.0,2.0,11,0.00,,,0.00,Wunderground v.1.15,2013-05-22 18:02:00,
2013-05-22 12:11:00,79.0,20.0,29.82,SW,221,2.0,2.0,11,0.00,,,0.00,Wunderground v.1.15,2013-05-22 18:11:00,
2013-05-22 12:21:00,78.6,19.7,29.82,South,191,3.0,4.0,11,0.00,,,0.00,Wunderground v.1.15,2013-05-22 18:21:00,
2013-05-22 12:27:00,79.1,20.0,29.82,SE,146,3.0,4.0,11,0.00,,,0.00,Wunderground v.1.15,2013-05-22 18:27:00,
2013-05-22 12:36:00,79.5,18.1,29.81,SSW,193,5.0,8.0,10,0.00,,,0.00,Wunderground v.1.15,2013-05-22 18:36:00,
2013-05-22 12:46:00,78.2,17.1,29.81,SE,125,4.0,11.0,10,0.00,,,0.00,Wunderground v.1.15,2013-05-22 18:46:00,
2013-05-22 12:56:00,78.9,17.7,29.80,SW,218,5.0,5.0,10,0.00,,,0.00,Wunderground v.1.15,2013-05-22 18:56:00,
2013-05-22 13:02:00,79.2,17.9,29.80,NE,35,3.0,5.0,10,0.00,,,0.00,Wunderground v.1.15,2013-05-22 19:02:00,
2013-05-22 13:11:00,80.5,18.9,29.80,SE,146,2.0,8.0,10,0.00,,,0.00,Wunderground v.1.15,2013-05-22 19:11:00,
2013-05-22 13:21:00,80.4,18.8,29.79,South,174,4.0,5.0,10,0.00,,,0.00,Wunderground v.1.15,2013-05-22 19:21:00,
2013-05-22 13:31:00,80.6,19.0,29.78,SW,221,5.0,5.0,10,0.00,,,0.00,Wunderground v.1.15,2013-05-22 19:31:00,
2013-05-22 13:41:00,81.1,16.9,29.78,SE,125,3.0,3.0,9,0.00,,,0.00,Wunderground v.1.15,2013-05-22 19:41:00,
2013-05-22 13:46:00,81.9,17.5,29.77,South,173,3.0,4.0,9,0.00,,,0.00,Wunderground v.1.15,2013-05-22 19:46:00,
2013-05-22 13:56:00,82.0,17.6,29.77,SE,139,5.0,8.0,9,0.00,,,0.00,Wunderground v.1.15,2013-05-22 19:56:00,
2013-05-22 14:02:00,82.1,17.6,29.76,SE,132,5.0,5.0,9,0.00,,,0.00,Wunderground v.1.15,2013-05-22 20:02:00,
2013-05-22 14:11:00,82.4,17.9,29.76,South,181,4.0,4.0,9,0.00,,,0.00,Wunderground v.1.15,2013-05-22 20:11:00,
2013-05-22 14:16:00,82.3,15.1,29.75,South,185,4.0,4.0,8,0.00,,,0.00,Wunderground v.1.15,2013-05-22 20:16:00,
2013-05-22 14:21:00,82.2,15.0,29.76,NW,309,4.0,4.0,8,0.00,,,0.00,Wunderground v.1.15,2013-05-22 20:21:00,
2013-05-22 14:27:00,82.3,15.1,29.75,ENE,71,4.0,4.0,8,0.00,,,0.00,Wunderground v.1.15,2013-05-22 20:27:00,
2013-05-22 14:36:00,82.7,15.4,29.75,SE,136,5.0,10.0,8,0.00,,,0.00,Wunderground v.1.15,2013-05-22 20:36:00,
2013-05-22 14:46:00,83.0,15.6,29.74,SSW,205,4.0,6.0,8,0.00,,,0.00,Wunderground v.1.15,2013-05-22 20:46:00,
2013-05-22 14:56:00,83.4,18.6,29.74,SE,129,6.0,6.0,9,0.00,,,0.00,Wunderground v.1.15,2013-05-22 20:56:00,
2013-05-22 15:02:00,83.2,15.7,29.73,ESE,121,6.0,6.0,8,0.00,,,0.00,Wunderground v.1.15,2013-05-22 21:02:00,
2013-05-22 15:11:00,83.4,15.9,29.72,SE,146,5.0,7.0,8,0.00,,,0.00,Wunderground v.1.15,2013-05-22 21:11:00,
2013-05-22 15:16:00,83.4,18.6,29.73,SSW,201,6.0,7.0,9,0.00,,,0.00,Wunderground v.1.15,2013-05-22 21:16:00,
2013-05-22 15:21:00,83.5,18.7,29.72,SSE,156,4.0,4.0,9,0.00,,,0.00,Wunderground v.1.15,2013-05-22 21:21:00,
2013-05-22 15:32:00,84.7,13.8,29.71,SW,235,4.0,9.0,7,0.00,,,0.00,Wunderground v.1.15,2013-05-22 21:32:00,
2013-05-22 15:41:00,84.5,16.7,29.71,SSE,158,4.0,4.0,8,0.00,,,0.00,Wunderground v.1.15,2013-05-22 21:41:00,
2013-05-22 15:47:00,84.5,13.6,29.71,SE,141,5.0,6.0,7,0.00,,,0.00,Wunderground v.1.15,2013-05-22 21:47:00,
2013-05-22 15:57:00,84.4,13.6,29.70,ESE,117,5.0,5.0,7,0.00,,,0.00,Wunderground v.1.15,2013-05-22 21:57:00,
2013-05-22 16:02:00,84.4,13.6,29.70,SE,129,8.0,8.0,7,0.00,,,0.00,Wunderground v.1.15,2013-05-22 22:02:00,
2013-05-22 16:12:00,84.6,13.7,29.69,SSW,210,7.0,7.0,7,0.00,,,0.00,Wunderground v.1.15,2013-05-22 22:12:00,
2013-05-22 16:21:00,85.7,14.5,29.69,SSE,163,4.0,8.0,7,0.00,,,0.00,Wunderground v.1.15,2013-05-22 22:21:00,
2013-05-22 16:31:00,85.2,14.1,29.68,SE,145,5.0,5.0,7,0.00,,,0.00,Wunderground v.1.15,2013-05-22 22:31:00,
2013-05-22 16:37:00,85.5,14.4,29.68,SSW,208,4.0,6.0,7,0.00,,,0.00,Wunderground v.1.15,2013-05-22 22:37:00,
2013-05-22 16:47:00,85.9,11.2,29.67,WSW,239,4.0,5.0,6,0.00,,,0.00,Wunderground v.1.15,2013-05-22 22:47:00,
2013-05-22 16:52:00,86.0,11.2,29.67,ESE,108,3.0,10.0,6,0.00,,,0.00,Wunderground v.1.15,2013-05-22 22:52:00,
2013-05-22 17:02:00,86.2,11.4,29.67,South,177,4.0,4.0,6,0.00,,,0.00,Wunderground v.1.15,2013-05-22 23:02:00,
2013-05-22 17:11:00,85.6,10.9,29.67,SSE,156,4.0,4.0,6,0.00,,,0.00,Wunderground v.1.15,2013-05-22 23:11:00,
2013-05-22 17:21:00,86.1,11.3,29.66,ESE,119,4.0,5.0,6,0.00,,,0.00,Wunderground v.1.15,2013-05-22 23:21:00,
2013-05-22 17:27:00,85.9,11.2,29.66,SSE,158,4.0,5.0,6,0.00,,,0.00,Wunderground v.1.15,2013-05-22 23:27:00,
2013-05-22 17:37:00,85.7,11.0,29.66,South,173,5.0,7.0,6,0.00,,,0.00,Wunderground v.1.15,2013-05-22 23:37:00,
2013-05-22 17:46:00,85.9,11.2,29.66,South,188,5.0,5.0,6,0.00,,,0.00,Wunderground v.1.15,2013-05-22 23:46:00,
2013-05-22 17:51:00,86.3,11.4,29.66,South,169,4.0,4.0,6,0.00,,,0.00,Wunderground v.1.15,2013-05-22 23:51:00,
2013-05-22 18:02:00,86.8,11.8,29.65,SE,132,4.0,4.0,6,0.00,,,0.00,Wunderground v.1.15,2013-05-23 00:02:00,
2013-05-22 18:11:00,84.7,10.3,29.65,SSE,167,7.0,7.0,6,0.00,,,0.00,Wunderground v.1.15,2013-05-23 00:11:00,
2013-05-22 18:22:00,83.8,9.6,29.65,ESE,117,4.0,4.0,6,0.00,,,0.00,Wunderground v.1.15,2013-05-23 00:22:00,
2013-05-22 18:31:00,83.4,9.4,29.65,ESE,121,3.0,5.0,6,0.00,,,0.00,Wunderground v.1.15,2013-05-23 00:31:00,
2013-05-22 18:41:00,82.9,9.0,29.65,ESE,121,4.0,4.0,6,0.00,,,0.00,Wunderground v.1.15,2013-05-23 00:41:00,
2013-05-22 18:51:00,83.3,9.3,29.65,SSE,165,5.0,5.0,6,0.00,,,0.00,Wunderground v.1.15,2013-05-23 00:51:00,
2013-05-22 18:57:00,83.9,5.7,29.65,SSE,160,5.0,5.0,5,0.00,,,0.00,Wunderground v.1.15,2013-05-23 00:57:00,
2013-05-22 19:02:00,83.7,5.5,29.66,SSE,152,5.0,5.0,5,0.00,,,0.00,Wunderground v.1.15,2013-05-23 01:02:00,
2013-05-22 19:11:00,83.0,9.1,29.66,SE,128,4.0,4.0,6,0.00,,,0.00,Wunderground v.1.15,2013-05-23 01:11:00,
2013-05-22 19:16:00,82.8,8.9,29.66,SE,131,4.0,4.0,6,0.00,,,0.00,Wunderground v.1.15,2013-05-23 01:16:00,
2013-05-22 19:26:00,82.3,8.6,29.66,SSE,148,1.0,2.0,6,0.00,,,0.00,Wunderground v.1.15,2013-05-23 01:26:00,
2013-05-22 19:31:00,82.2,12.0,29.66,SE,145,2.0,3.0,7,0.00,,,0.00,Wunderground v.1.15,2013-05-23 01:31:00,
2013-05-22 19:37:00,82.3,8.6,29.66,SSE,167,3.0,3.0,6,0.00,,,0.00,Wunderground v.1.15,2013-05-23 01:37:00,
2013-05-22 19:46:00,82.4,8.6,29.66,SE,141,3.0,4.0,6,0.00,,,0.00,Wunderground v.1.15,2013-05-23 01:46:00,
2013-05-22 19:52:00,82.3,12.0,29.66,SW,215,3.0,3.0,7,0.00,,,0.00,Wunderground v.1.15,2013-05-23 01:52:00,
2013-05-22 20:02:00,82.0,11.8,29.67,SSE,167,4.0,4.0,7,0.00,,,0.00,Wunderground v.1.15,2013-05-23 02:02:00,
2013-05-22 20:11:00,81.6,11.5,29.67,SSE,156,3.0,5.0,7,0.00,,,0.00,Wunderground v.1.15,2013-05-23 02:11:00,
2013-05-22 20:21:00,81.2,11.2,29.67,SSE,156,3.0,4.0,7,0.00,,,0.00,Wunderground v.1.15,2013-05-23 02:21:00,
2013-05-22 20:26:00,81.0,11.1,29.67,SE,129,3.0,4.0,7,0.00,,,0.00,Wunderground v.1.15,2013-05-23 02:26:00,
2013-05-22 20:32:00,80.8,14.0,29.67,SE,135,2.0,2.0,8,0.00,,,0.00,Wunderground v.1.15,2013-05-23 02:32:00,
2013-05-22 20:42:00,80.1,13.4,29.67,SE,129,1.0,2.0,8,0.00,,,0.00,Wunderground v.1.15,2013-05-23 02:42:00,
2013-05-22 20:51:00,80.1,13.4,29.67,SW,217,3.0,3.0,8,0.00,,,0.00,Wunderground v.1.15,2013-05-23 02:51:00,
2013-05-22 21:02:00,80.2,10.5,29.68,SE,131,3.0,3.0,7,0.00,,,0.00,Wunderground v.1.15,2013-05-23 03:02:00,
2013-05-22 21:11:00,79.9,13.3,29.68,SE,129,2.0,3.0,8,0.00,,,0.00,Wunderground v.1.15,2013-05-23 03:11:00,
2013-05-22 21:17:00,79.5,13.0,29.68,ESE,123,2.0,4.0,8,0.00,,,0.00,Wunderground v.1.15,2013-05-23 03:17:00,
2013-05-22 21:27:00,79.1,12.7,29.68,SSE,152,2.0,3.0,8,0.00,,,0.00,Wunderground v.1.15,2013-05-23 03:27:00,
2013-05-22 21:36:00,78.9,15.2,29.69,SE,139,2.0,2.0,9,0.00,,,0.00,Wunderground v.1.15,2013-05-23 03:36:00,
2013-05-22 21:46:00,78.9,15.2,29.69,SE,132,2.0,2.0,9,0.00,,,0.00,Wunderground v.1.15,2013-05-23 03:46:00,
2013-05-22 21:52:00,78.6,15.0,29.69,SSE,151,1.0,2.0,9,0.00,,,0.00,Wunderground v.1.15,2013-05-23 03:52:00,
2013-05-22 22:02:00,79.7,15.8,29.69,SSW,194,2.0,2.0,9,0.00,,,0.00,Wunderground v.1.15,2013-05-23 04:02:00,
2013-05-22 22:06:00,79.3,15.5,29.69,West,260,0.0,2.0,9,0.00,,,0.00,Wunderground v.1.15,2013-05-23 04:06:00,
2013-05-22 22:11:00,78.8,15.1,29.70,WNW,298,0.0,0.0,9,0.00,,,0.00,Wunderground v.1.15,2013-05-23 04:11:00,
2013-05-22 22:16:00,78.4,17.3,29.70,South,174,0.0,1.0,10,0.00,,,0.00,Wunderground v.1.15,2013-05-23 04:16:00,
2013-05-22 22:21:00,77.9,16.9,29.70,SSW,201,0.0,0.0,10,0.00,,,0.00,Wunderground v.1.15,2013-05-23 04:21:00,
2013-05-22 22:27:00,77.4,16.5,29.70,SE,141,0.0,1.0,10,0.00,,,0.00,Wunderground v.1.15,2013-05-23 04:27:00,
2013-05-22 22:37:00,77.2,16.4,29.70,SSE,152,1.0,2.0,10,0.00,,,0.00,Wunderground v.1.15,2013-05-23 04:37:00,
2013-05-22 22:46:00,76.6,15.9,29.70,SW,224,1.0,1.0,10,0.00,,,0.00,Wunderground v.1.15,2013-05-23 04:46:00,
2013-05-22 22:51:00,76.5,15.8,29.71,WSW,242,1.0,1.0,10,0.00,,,0.00,Wunderground v.1.15,2013-05-23 04:51:00,
2013-05-22 22:56:00,76.4,15.7,29.71,WSW,258,1.0,2.0,10,0.00,,,0.00,Wunderground v.1.15,2013-05-23 04:56:00,
2013-05-22 23:02:00,76.3,15.7,29.71,WSW,243,1.0,1.0,10,0.00,,,0.00,Wunderground v.1.15,2013-05-23 05:02:00,
2013-05-22 23:07:00,76.1,15.5,29.71,WSW,248,1.0,1.0,10,0.00,,,0.00,Wunderground v.1.15,2013-05-23 05:07:00,
2013-05-22 23:17:00,75.1,17.0,29.72,North,359,0.0,2.0,11,0.00,,,0.00,Wunderground v.1.15,2013-05-23 05:17:00,
2013-05-22 23:22:00,74.4,18.4,29.72,North,7,1.0,1.0,12,0.00,,,0.00,Wunderground v.1.15,2013-05-23 05:22:00,
2013-05-22 23:31:00,73.1,19.3,29.72,North,5,0.0,0.0,13,0.00,,,0.00,Wunderground v.1.15,2013-05-23 05:31:00,
2013-05-22 23:41:00,71.6,21.5,29.72,ENE,71,0.0,0.0,15,0.00,,,0.00,Wunderground v.1.15,2013-05-23 05:41:00,
2013-05-22 23:47:00,70.7,20.7,29.72,ENE,71,0.0,0.0,15,0.00,,,0.00,Wunderground v.1.15,2013-05-23 05:47:00,
2013-05-22 23:56:00,69.3,21.1,29.73,ENE,71,0.0,0.0,16,0.00,,,0.00,Wunderground v.1.15,2013-05-23 05:56:00,